createdAt,value
2022-10-23T00:01:36.215Z,100011.88
2022-10-23T00:04:14.649Z,100027.41
2022-10-23T00:06:42.649Z,100028.66
2022-10-23T00:09:12.601Z,100027.34
2022-10-23T00:11:41.482Z,100022.16
2022-10-23T00:14:08.843Z,100012.03
2022-10-23T00:16:35.985Z,100005.25
2022-10-23T00:19:03.609Z,100010.09
2022-10-23T00:21:30.414Z,100016.34
2022-10-23T00:23:57.317Z,100007.91
2022-10-23T00:26:24.385Z,100009.59
2022-10-23T00:28:53.198Z,100002.00
2022-10-23T00:31:21.640Z,100003.06
2022-10-23T00:33:48.987Z,99996.94
2022-10-23T00:36:18.047Z,100000.13
2022-10-23T00:38:45.947Z,99989.13
2022-10-23T00:41:23.371Z,99984.19
2022-10-23T00:44:10.799Z,99986.69
2022-10-23T00:46:39.095Z,99988.66
2022-10-23T00:49:07.318Z,99982.50
2022-10-23T00:51:45.040Z,99984.06
2022-10-23T00:54:29.407Z,100000.13
2022-10-23T00:57:02.605Z,99994.00
2022-10-23T00:59:30.242Z,99988.50
2022-10-23T01:01:57.779Z,99989.03
2022-10-23T01:04:27.942Z,99988.34
2022-10-23T01:07:10.147Z,99981.44
2022-10-23T01:09:46.856Z,99979.41
2022-10-23T01:12:26.588Z,99974.19
2022-10-23T01:15:35.240Z,99986.41
2022-10-23T01:18:16.631Z,99977.53
2022-10-23T01:21:10.275Z,99974.25
2022-10-23T01:23:55.525Z,99980.25
2022-10-23T01:26:55.686Z,99974.63
2022-10-23T01:29:35.584Z,99977.88
2022-10-23T01:32:35.645Z,99974.63
2022-10-23T01:35:11.787Z,99970.44
2022-10-23T01:37:46.767Z,99972.88
2022-10-23T01:40:29.370Z,99976.09
2022-10-23T01:43:02.349Z,99971.63
2022-10-23T01:45:53.388Z,99979.09
2022-10-23T01:48:27.490Z,99974.00
2022-10-23T01:50:58.149Z,99975.69
2022-10-23T01:53:27.995Z,99971.91
2022-10-23T01:55:55.877Z,99982.06
2022-10-23T01:58:27.078Z,99987.28
2022-10-23T02:00:58.917Z,99995.44
2022-10-23T02:03:30.389Z,99981.44
2022-10-23T02:05:58.110Z,99982.47
2022-10-23T02:08:27.902Z,99986.03
2022-10-23T02:11:11.510Z,100002.66
2022-10-23T02:13:45.526Z,99989.13
2022-10-23T02:16:39.372Z,99992.97
2022-10-23T02:19:27.003Z,99985.03
2022-10-23T02:22:28.825Z,99990.94
2022-10-23T02:25:05.883Z,99983.56
2022-10-23T02:27:42.397Z,99991.72
2022-10-23T02:30:13.031Z,99988.41
2022-10-23T02:32:46.587Z,99996.06
2022-10-23T02:35:14.147Z,99991.00
2022-10-23T02:37:41.513Z,99991.50
2022-10-23T02:40:09.937Z,99988.44
2022-10-23T02:42:50.039Z,99989.69
2022-10-23T02:45:33.839Z,99997.63
2022-10-23T02:48:12.393Z,99993.09
2022-10-23T02:51:03.077Z,100001.31
2022-10-23T02:53:43.043Z,99983.81
2022-10-23T02:56:55.620Z,99999.72
2022-10-23T02:59:44.175Z,100010.72
2022-10-23T03:02:26.151Z,100003.13
2022-10-23T03:04:56.122Z,99995.44
2022-10-23T03:07:25.807Z,100001.69
2022-10-23T03:10:02.098Z,100002.84
2022-10-23T03:12:30.751Z,100004.47
2022-10-23T03:14:59.093Z,100011.16
2022-10-23T03:17:26.024Z,99996.94
2022-10-23T03:19:56.113Z,100010.91
2022-10-23T03:22:23.126Z,100008.50
2022-10-23T03:24:49.909Z,100009.78
2022-10-23T03:27:16.797Z,100005.16
2022-10-23T03:29:43.732Z,100012.50
2022-10-23T03:32:10.633Z,100014.81
2022-10-23T03:34:38.105Z,100015.50
2022-10-23T03:37:05.169Z,100016.59
2022-10-23T03:39:32.093Z,100016.16
2022-10-23T03:41:58.919Z,100011.38
2022-10-23T03:44:26.057Z,100000.56
2022-10-23T03:46:53.066Z,100002.16
2022-10-23T03:49:21.150Z,100017.16
2022-10-23T03:51:52.216Z,99993.31
2022-10-23T03:54:25.798Z,100028.03
2022-10-23T03:56:56.649Z,100013.19
2022-10-23T03:59:26.063Z,100032.00
2022-10-23T04:01:53.469Z,100010.09
2022-10-23T04:04:20.393Z,100029.19
2022-10-23T04:06:47.895Z,100005.31
2022-10-23T04:09:14.863Z,100014.66
2022-10-23T04:11:43.847Z,100015.31
2022-10-23T04:14:13.308Z,100022.72
2022-10-23T04:16:40.583Z,100015.44
2022-10-23T04:19:07.458Z,100025.41
2022-10-23T04:21:34.422Z,100017.19
2022-10-23T04:24:01.482Z,100025.91
2022-10-23T04:26:28.503Z,100011.03
2022-10-23T04:28:55.297Z,100004.28
2022-10-23T04:31:22.111Z,100012.34
2022-10-23T04:33:49.583Z,100008.88
2022-10-23T04:36:32.146Z,100020.47
2022-10-23T04:39:06.861Z,99990.06
2022-10-23T04:41:33.821Z,100014.66
2022-10-23T04:44:00.824Z,100009.63
2022-10-23T04:46:28.384Z,100014.75
2022-10-23T04:48:55.206Z,100027.59
2022-10-23T04:51:40.548Z,100021.03
2022-10-23T04:54:24.783Z,100027.75
2022-10-23T04:57:01.157Z,100013.69
2022-10-23T04:59:37.009Z,100003.06
2022-10-23T05:02:04.283Z,100001.50
2022-10-23T05:04:31.451Z,99985.44
2022-10-23T05:07:17.034Z,100002.88
2022-10-23T05:10:10.250Z,100012.44
2022-10-23T05:12:47.707Z,100009.28
2022-10-23T05:15:14.930Z,99996.06
2022-10-23T05:17:46.935Z,100006.28
2022-10-23T05:20:21.798Z,100009.47
2022-10-23T05:22:52.548Z,100018.06
2022-10-23T05:25:24.092Z,100011.38
2022-10-23T05:27:59.149Z,100013.00
2022-10-23T05:30:26.345Z,100023.44
2022-10-23T05:32:54.359Z,100039.34
2022-10-23T05:35:24.546Z,100041.78
2022-10-23T05:37:54.536Z,100045.34
2022-10-23T05:40:24.284Z,100031.09
2022-10-23T05:42:57.331Z,100034.88
2022-10-23T05:45:47.355Z,100050.88
2022-10-23T05:48:52.930Z,100035.03
2022-10-23T05:51:23.113Z,100042.00
2022-10-23T05:54:11.147Z,100051.44
2022-10-23T05:56:46.799Z,100049.75
2022-10-23T05:59:23.175Z,100045.59
2022-10-23T06:02:19.913Z,100060.91
2022-10-23T06:04:53.028Z,100049.41
2022-10-23T06:07:32.441Z,100059.22
2022-10-23T06:10:06.180Z,100068.19
2022-10-23T06:12:36.179Z,100043.97
2022-10-23T06:15:04.003Z,100046.09
2022-10-23T06:17:50.760Z,100066.84
2022-10-23T06:20:17.954Z,100057.41
2022-10-23T06:22:53.037Z,100061.66
2022-10-23T06:25:41.562Z,100066.19
2022-10-23T06:28:08.655Z,100079.84
2022-10-23T06:30:39.313Z,100084.75
2022-10-23T06:33:06.640Z,100077.97
2022-10-23T06:35:33.881Z,100080.13
2022-10-23T06:38:01.277Z,100082.34
2022-10-23T06:40:37.958Z,100088.00
2022-10-23T06:43:08.633Z,100071.19
2022-10-23T06:46:02.169Z,100057.69
2022-10-23T06:49:04.332Z,100054.38
2022-10-23T06:51:35.820Z,100047.47
2022-10-23T06:54:04.203Z,100054.97
2022-10-23T06:57:00.339Z,100063.38
2022-10-23T06:59:41.050Z,100068.00
2022-10-23T07:02:10.068Z,100080.25
2022-10-23T07:04:39.778Z,100099.16
2022-10-23T07:07:12.263Z,100103.28
2022-10-23T07:09:45.125Z,100106.47
2022-10-23T07:12:21.474Z,100097.56
2022-10-23T07:14:54.545Z,100094.22
2022-10-23T07:17:21.930Z,100092.13
2022-10-23T07:19:48.773Z,100080.47
2022-10-23T07:22:16.160Z,100083.09
2022-10-23T07:25:05.304Z,100085.63
2022-10-23T07:27:38.424Z,100080.63
2022-10-23T07:30:08.292Z,100064.19
2022-10-23T07:32:43.960Z,100068.09
2022-10-23T07:35:29.465Z,100076.81
2022-10-23T07:38:09.453Z,100074.38
2022-10-23T07:40:41.020Z,100070.25
2022-10-23T07:43:09.996Z,100085.94
2022-10-23T07:45:37.284Z,100091.81
2022-10-23T07:48:14.471Z,100085.31
2022-10-23T07:51:03.606Z,100087.38
2022-10-23T07:53:31.294Z,100077.44
2022-10-23T07:56:14.564Z,100080.31
2022-10-23T07:59:19.564Z,100087.56
2022-10-23T08:01:55.831Z,100100.84
2022-10-23T08:04:27.691Z,100099.66
2022-10-23T08:07:01.174Z,100115.09
2022-10-23T08:09:31.379Z,100107.75
2022-10-23T08:11:58.255Z,100109.63
2022-10-23T08:14:28.686Z,100125.06
2022-10-23T08:16:55.869Z,100128.81
2022-10-23T08:19:46.492Z,100133.16
2022-10-23T08:22:14.786Z,100123.69
2022-10-23T08:24:41.796Z,100132.25
2022-10-23T08:27:08.753Z,100137.91
2022-10-23T08:29:41.955Z,100144.31
2022-10-23T08:32:09.244Z,100146.44
2022-10-23T08:34:47.786Z,100144.28
2022-10-23T08:37:14.674Z,100138.44
2022-10-23T08:39:41.659Z,100136.25
2022-10-23T08:42:25.593Z,100143.28
2022-10-23T08:45:03.744Z,100149.72
2022-10-23T08:47:41.069Z,100147.56
2022-10-23T08:50:25.531Z,100158.22
2022-10-23T08:53:01.063Z,100158.38
2022-10-23T08:55:35.927Z,100162.72
2022-10-23T08:58:25.717Z,100170.38
2022-10-23T09:00:52.692Z,100173.72
2022-10-23T09:03:19.854Z,100151.16
2022-10-23T09:06:01.932Z,100159.78
2022-10-23T09:08:53.372Z,100157.59
2022-10-23T09:11:38.607Z,100158.88
2022-10-23T09:14:27.772Z,100155.53
2022-10-23T09:19:47.010Z,100164.28
2022-10-23T09:22:14.100Z,100166.09
2022-10-23T09:24:43.710Z,100160.91
2022-10-23T09:27:16.879Z,100166.81
2022-10-23T09:29:55.220Z,100162.16
2022-10-23T09:32:37.630Z,100162.34
2022-10-23T09:35:05.814Z,100150.56
2022-10-23T09:37:35.960Z,100146.38
2022-10-23T09:40:12.337Z,100140.56
2022-10-23T09:42:52.889Z,100142.19
2022-10-23T09:45:56.076Z,100148.03
2022-10-23T09:48:23.035Z,100139.03
2022-10-23T09:50:54.393Z,100149.91
2022-10-23T09:53:38.515Z,100157.81
2022-10-23T09:56:24.817Z,100157.47
2022-10-23T09:58:59.075Z,100155.81
2022-10-23T10:01:29.524Z,100160.88
2022-10-23T10:04:09.647Z,100145.81
2022-10-23T10:06:36.779Z,100146.44
2022-10-23T10:09:13.498Z,100145.47
2022-10-23T10:11:46.354Z,100134.41
2022-10-23T10:14:30.224Z,100136.06
2022-10-23T10:16:59.704Z,100135.84
2022-10-23T10:20:05.238Z,100137.31
2022-10-23T10:22:53.054Z,100145.03
2022-10-23T10:25:47.451Z,100133.34
2022-10-23T10:28:38.163Z,100142.31
2022-10-23T10:31:16.936Z,100141.31
2022-10-23T10:33:49.753Z,100134.63
2022-10-23T10:36:48.201Z,100136.97
2022-10-23T10:39:47.000Z,100136.56
2022-10-23T10:42:27.144Z,100144.69
2022-10-23T10:45:23.500Z,100123.44
2022-10-23T10:48:27.647Z,100122.81
2022-10-23T10:51:24.296Z,100119.91
2022-10-23T10:54:27.934Z,100109.91
2022-10-23T10:56:58.396Z,100112.59
2022-10-23T10:59:30.600Z,100111.75
2022-10-23T11:02:41.569Z,100114.47
2022-10-23T11:05:23.721Z,100118.84
2022-10-23T11:08:00.362Z,100112.19
2022-10-23T11:10:29.080Z,100099.59
2022-10-23T11:12:56.987Z,100106.00
2022-10-23T11:15:38.908Z,100102.22
2022-10-23T11:18:14.104Z,100106.69
2022-10-23T11:21:11.940Z,100104.47
2022-10-23T11:24:03.819Z,100109.25
2022-10-23T11:27:00.004Z,100103.00
2022-10-23T11:29:44.862Z,100114.88
2022-10-23T11:35:06.094Z,100099.69
2022-10-23T11:37:33.341Z,100106.75
2022-10-23T11:40:09.409Z,100094.25
2022-10-23T11:42:39.329Z,100092.97
2022-10-23T11:45:36.147Z,100089.84
2022-10-23T11:48:21.055Z,100085.06
2022-10-23T11:50:47.824Z,100092.34
2022-10-23T11:53:33.069Z,100095.91
2022-10-23T11:56:12.089Z,100090.06
2022-10-23T11:58:51.221Z,100086.72
2022-10-23T12:01:30.480Z,100082.72
2022-10-23T12:04:12.558Z,100076.06
2022-10-23T12:06:42.760Z,100078.34
2022-10-23T12:09:25.859Z,100080.22
2022-10-23T12:12:07.700Z,100087.06
2022-10-23T12:14:45.976Z,100079.16
2022-10-23T12:17:36.027Z,100093.38
2022-10-23T12:20:08.771Z,100086.63
2022-10-23T12:22:44.578Z,100079.16
2022-10-23T12:25:17.054Z,100088.72
2022-10-23T12:28:03.923Z,100100.97
2022-10-23T12:30:42.227Z,100091.97
2022-10-23T12:33:32.047Z,100092.78
2022-10-23T12:36:20.373Z,100095.88
2022-10-23T12:38:49.932Z,100078.63
2022-10-23T12:41:23.197Z,100086.94
2022-10-23T12:43:55.104Z,100084.88
2022-10-23T12:46:34.812Z,100090.94
2022-10-23T12:49:12.810Z,100089.06
2022-10-23T12:51:39.648Z,100091.72
2022-10-23T12:54:18.338Z,100096.78
2022-10-23T12:56:46.070Z,100105.56
2022-10-23T12:59:28.244Z,100107.34
2022-10-23T13:01:56.196Z,100103.81
2022-10-23T13:04:26.817Z,100109.66
2022-10-23T13:06:56.258Z,100102.56
2022-10-23T13:09:36.146Z,100102.16
2022-10-23T13:12:18.644Z,100105.28
2022-10-23T13:15:08.817Z,100109.66
2022-10-23T13:17:44.669Z,100103.56
2022-10-23T13:20:22.809Z,100111.34
2022-10-23T13:22:57.690Z,100114.47
2022-10-23T13:25:28.908Z,100120.31
2022-10-23T13:28:07.996Z,100117.38
2022-10-23T13:30:38.773Z,100119.66
2022-10-23T13:33:21.140Z,100117.59
2022-10-23T13:36:04.812Z,100127.22
2022-10-23T13:38:37.557Z,100134.69
2022-10-23T13:41:15.061Z,100138.03
2022-10-23T13:43:42.851Z,100123.38
2022-10-23T13:46:14.861Z,100125.66
2022-10-23T13:48:42.122Z,100128.38
2022-10-23T13:51:20.642Z,100121.25
2022-10-23T13:53:47.941Z,100113.13
2022-10-23T13:56:17.172Z,100122.06
2022-10-23T13:58:44.085Z,100115.38
2022-10-23T14:01:23.237Z,100114.78
2022-10-23T14:03:51.322Z,100118.31
2022-10-23T14:06:18.349Z,100116.63
2022-10-23T14:08:45.920Z,100116.84
2022-10-23T14:13:46.414Z,100121.56
2022-10-23T14:16:15.474Z,100126.97
2022-10-23T14:18:42.864Z,100125.22
2022-10-23T14:21:12.449Z,100126.88
2022-10-23T14:23:39.774Z,100121.13
2022-10-23T14:26:13.069Z,100119.88
2022-10-23T14:28:40.156Z,100118.13
2022-10-23T14:31:15.425Z,100129.41
2022-10-23T14:33:43.442Z,100128.13
2022-10-23T14:36:10.662Z,100135.63
2022-10-23T14:38:37.756Z,100129.06
2022-10-23T14:41:11.709Z,100131.84
2022-10-23T14:43:38.850Z,100137.31
2022-10-23T14:46:17.356Z,100131.59
2022-10-23T14:48:46.201Z,100139.16
2022-10-23T14:51:23.884Z,100135.81
2022-10-23T14:53:58.827Z,100138.63
2022-10-23T14:56:26.280Z,100140.22
2022-10-23T14:58:53.118Z,100149.38
2022-10-23T15:01:20.248Z,100155.28
2022-10-23T15:03:48.636Z,100161.13
2022-10-23T15:06:18.269Z,100152.63
2022-10-23T15:08:45.445Z,100160.13
2022-10-23T15:11:12.806Z,100155.63
2022-10-23T15:13:39.769Z,100156.19
2022-10-23T15:16:10.266Z,100155.09
2022-10-23T15:21:06.893Z,100165.44
2022-10-23T15:23:39.155Z,100165.31
2022-10-23T15:26:09.458Z,100163.94
2022-10-23T15:28:36.295Z,100168.72
2022-10-23T15:31:03.222Z,100159.00
2022-10-23T15:33:30.170Z,100157.34
2022-10-23T15:35:56.998Z,100162.06
2022-10-23T15:38:24.571Z,100163.69
2022-10-23T15:40:58.574Z,100169.44
2022-10-23T15:43:25.466Z,100175.31
2022-10-23T15:45:52.281Z,100180.88
2022-10-23T15:48:19.432Z,100182.88
2022-10-23T15:50:46.269Z,100186.09
2022-10-23T15:53:13.251Z,100195.19
2022-10-23T15:55:40.044Z,100194.19
2022-10-23T15:58:06.962Z,100197.56
2022-10-23T16:00:36.353Z,100197.41
2022-10-23T16:03:03.424Z,100191.22
2022-10-23T16:05:30.499Z,100202.69
2022-10-23T16:07:57.417Z,100209.41
2022-10-23T16:10:25.037Z,100200.03
2022-10-23T16:12:51.954Z,100204.09
2022-10-23T16:15:18.784Z,100222.03
2022-10-23T16:17:45.888Z,100221.22
2022-10-23T16:20:12.892Z,100214.16
2022-10-23T16:22:42.680Z,100225.94
2022-10-23T16:25:11.885Z,100220.41
2022-10-23T16:27:39.002Z,100228.94
2022-10-23T16:30:09.079Z,100235.66
2022-10-23T16:32:36.605Z,100232.16
2022-10-23T16:35:03.713Z,100241.22
2022-10-23T16:37:40.398Z,100243.53
2022-10-23T16:40:13.577Z,100249.06
2022-10-23T16:42:58.939Z,100250.06
2022-10-23T16:45:44.233Z,100252.91
2022-10-23T16:48:11.447Z,100249.69
2022-10-23T16:53:12.089Z,100263.28
2022-10-23T16:55:40.973Z,100268.84
2022-10-23T16:58:07.787Z,100269.69
2022-10-23T17:00:37.724Z,100264.91
2022-10-23T17:03:05.462Z,100273.63
2022-10-23T17:05:35.781Z,100276.47
2022-10-23T17:08:02.622Z,100268.50
2022-10-23T17:10:29.487Z,100276.38
2022-10-23T17:12:56.334Z,100279.91
2022-10-23T17:15:23.971Z,100279.19
2022-10-23T17:17:50.989Z,100272.66
2022-10-23T17:20:18.180Z,100277.66
2022-10-23T17:22:44.989Z,100288.63
2022-10-23T17:25:12.693Z,100294.13
2022-10-23T17:27:39.731Z,100295.78
2022-10-23T17:30:10.413Z,100308.91
2022-10-23T17:32:39.339Z,100315.63
2022-10-23T17:35:07.085Z,100319.97
2022-10-23T17:37:33.955Z,100315.28
2022-10-23T17:40:02.633Z,100318.53
2022-10-23T17:42:29.702Z,100326.03
2022-10-23T17:44:56.641Z,100322.31
2022-10-23T17:47:23.525Z,100330.34
2022-10-23T17:49:50.397Z,100326.47
2022-10-23T17:52:17.435Z,100320.63
2022-10-23T17:54:44.286Z,100333.53
2022-10-23T17:57:11.466Z,100323.16
2022-10-23T17:59:39.186Z,100330.16
2022-10-23T18:02:07.250Z,100322.19
2022-10-23T18:04:34.840Z,100326.56
2022-10-23T18:07:01.715Z,100319.50
2022-10-23T18:09:28.590Z,100319.75
2022-10-23T18:11:55.571Z,100317.91
2022-10-23T18:14:23.540Z,100321.03
2022-10-23T18:16:52.568Z,100323.16
2022-10-23T18:19:19.613Z,100323.56
2022-10-23T18:21:47.860Z,100329.53
2022-10-23T18:24:15.641Z,100323.84
2022-10-23T18:26:42.660Z,100331.72
2022-10-23T18:29:11.997Z,100329.47
2022-10-23T18:31:39.426Z,100327.84
2022-10-23T18:34:09.398Z,100324.19
2022-10-23T18:36:40.804Z,100329.16
2022-10-23T18:39:12.004Z,100323.94
2022-10-23T18:41:41.510Z,100330.03
2022-10-23T18:44:09.829Z,100327.78
2022-10-23T18:46:37.129Z,100332.88
2022-10-23T18:49:04.775Z,100330.97
2022-10-23T18:51:35.085Z,100324.47
2022-10-23T18:54:05.083Z,100326.53
2022-10-23T18:56:34.137Z,100319.19
2022-10-23T18:59:03.171Z,100324.84
2022-10-23T19:01:30.771Z,100334.63
2022-10-23T19:03:59.544Z,100344.22
2022-10-23T19:06:27.189Z,100349.31
2022-10-23T19:08:54.705Z,100353.22
2022-10-23T19:11:23.663Z,100355.00
2022-10-23T19:13:50.561Z,100338.41
2022-10-23T19:16:33.383Z,100330.22
2022-10-23T19:19:28.520Z,100336.44
2022-10-23T19:21:56.605Z,100339.13
2022-10-23T19:24:29.608Z,100335.44
2022-10-23T19:27:00.321Z,100344.78
2022-10-23T19:29:27.796Z,100344.22
2022-10-23T19:31:55.065Z,100340.38
2022-10-23T19:34:25.107Z,100343.22
2022-10-23T19:36:53.761Z,100344.16
2022-10-23T19:39:20.883Z,100344.16
2022-10-23T19:41:48.222Z,100346.56
2022-10-23T19:44:15.356Z,100351.34
2022-10-23T19:46:42.176Z,100367.94
2022-10-23T19:49:09.203Z,100369.22
2022-10-23T19:51:36.931Z,100367.56
2022-10-23T19:54:04.221Z,100364.66
2022-10-23T19:56:31.116Z,100364.06
2022-10-23T19:58:57.944Z,100353.16
2022-10-23T20:01:25.892Z,100372.75
2022-10-23T20:03:53.206Z,100369.97
2022-10-23T20:06:23.408Z,100374.19
2022-10-23T20:08:50.333Z,100375.75
2022-10-23T20:11:23.336Z,100370.44
2022-10-23T20:13:51.631Z,100375.56
2022-10-23T20:16:30.207Z,100377.56
2022-10-23T20:18:57.720Z,100364.75
2022-10-23T20:21:25.097Z,100368.97
2022-10-23T20:23:52.635Z,100374.78
2022-10-23T20:26:23.646Z,100373.19
2022-10-23T20:28:53.855Z,100371.38
2022-10-23T20:31:23.114Z,100381.47
2022-10-23T20:33:50.773Z,100382.31
2022-10-23T20:36:34.011Z,100373.47
2022-10-23T20:39:10.027Z,100367.53
2022-10-23T20:41:37.563Z,100376.38
2022-10-23T20:44:11.576Z,100380.63
2022-10-23T20:46:38.997Z,100383.72
2022-10-23T20:49:05.956Z,100381.16
2022-10-23T20:51:32.877Z,100371.47
2022-10-23T20:53:59.694Z,100381.47
2022-10-23T20:56:32.550Z,100385.09
2022-10-23T20:59:05.185Z,100387.63
2022-10-23T21:01:32.803Z,100386.03
2022-10-23T21:04:01.466Z,100392.38
2022-10-23T21:06:41.056Z,100382.63
2022-10-23T21:09:17.179Z,100378.00
2022-10-23T21:11:44.021Z,100379.66
2022-10-23T21:14:11.008Z,100376.50
2022-10-23T21:16:40.874Z,100381.38
2022-10-23T21:19:09.082Z,100378.41
2022-10-23T21:21:36.170Z,100374.03
2022-10-23T21:24:06.801Z,100372.88
2022-10-23T21:26:34.169Z,100379.56
2022-10-23T21:29:17.408Z,100375.00
2022-10-23T21:31:45.669Z,100372.59
2022-10-23T21:34:12.587Z,100363.78
2022-10-23T21:36:48.528Z,100363.25
2022-10-23T21:39:26.335Z,100366.97
2022-10-23T21:41:53.125Z,100365.19
2022-10-23T21:44:19.959Z,100366.34
2022-10-23T21:46:47.122Z,100369.19
2022-10-23T21:49:13.994Z,100372.94
2022-10-23T21:51:41.051Z,100377.69
2022-10-23T21:54:10.903Z,100382.91
2022-10-23T21:56:41.925Z,100395.09
2022-10-23T21:59:13.440Z,100383.69
2022-10-23T22:01:43.281Z,100383.16
2022-10-23T22:04:15.027Z,100387.41
2022-10-23T22:06:42.868Z,100396.44
2022-10-23T22:09:11.545Z,100395.16
2022-10-23T22:11:38.896Z,100395.31
2022-10-23T22:14:05.744Z,100386.34
2022-10-23T22:16:32.711Z,100386.09
2022-10-23T22:18:59.603Z,100382.88
2022-10-23T22:21:28.838Z,100377.59
2022-10-23T22:23:57.889Z,100365.84
2022-10-23T22:26:29.407Z,100375.91
2022-10-23T22:28:59.041Z,100383.00
2022-10-23T22:31:29.107Z,100389.91
2022-10-23T22:33:57.013Z,100386.25
2022-10-23T22:36:25.388Z,100383.50
2022-10-23T22:38:52.480Z,100379.56
2022-10-23T22:41:19.739Z,100378.28
2022-10-23T22:43:46.702Z,100378.94
2022-10-23T22:46:16.618Z,100384.63
2022-10-23T22:48:44.480Z,100383.50
2022-10-23T22:51:13.469Z,100372.22
2022-10-23T22:53:40.656Z,100357.75
2022-10-23T22:56:09.473Z,100360.13
2022-10-23T22:58:36.897Z,100366.19
2022-10-23T23:01:15.064Z,100363.59
2022-10-23T23:03:43.106Z,100372.09
2022-10-23T23:06:11.194Z,100380.81
2022-10-23T23:08:40.337Z,100383.50
2022-10-23T23:11:09.312Z,100386.41
2022-10-23T23:13:36.633Z,100391.81
2022-10-23T23:16:04.307Z,100388.09
2022-10-23T23:18:31.819Z,100376.50
2022-10-23T23:21:03.321Z,100382.59
2022-10-23T23:23:30.377Z,100384.53
2022-10-23T23:25:57.534Z,100383.44
2022-10-23T23:28:24.672Z,100383.28
2022-10-23T23:31:03.654Z,100383.69
2022-10-23T23:33:30.509Z,100381.69
2022-10-23T23:35:57.462Z,100377.34
2022-10-23T23:38:24.278Z,100379.88
2022-10-23T23:40:52.862Z,100375.91
2022-10-23T23:43:20.245Z,100381.41
2022-10-23T23:45:47.207Z,100380.19
2022-10-23T23:48:14.053Z,100380.22
2022-10-23T23:50:41.623Z,100381.66
2022-10-23T23:53:08.514Z,100373.19
2022-10-23T23:55:35.485Z,100379.38
2022-10-23T23:58:02.511Z,100365.72
